createdAt,value
2017-11-17T00:00:57.216Z,47.92
2017-11-17T00:03:54.961Z,54.67
2017-11-17T00:19:45.812Z,60.38
2017-11-17T00:22:34.704Z,49.07
2017-11-17T00:25:32.737Z,55.55
2017-11-17T00:41:22.536Z,49.95
2017-11-17T00:44:12.236Z,51.53
2017-11-17T00:47:09.927Z,56.50
2017-11-17T00:50:06.867Z,46.20
2017-11-17T00:53:03.884Z,43.05
2017-11-17T00:56:00.919Z,48.05
2017-11-17T00:58:57.947Z,49.67
2017-11-17T01:01:55.916Z,50.85
2017-11-17T01:04:21.722Z,52.45
2017-11-17T01:23:57.652Z,47.53
2017-11-17T01:26:23.433Z,44.08
2017-11-17T01:29:13.100Z,48.20
2017-11-17T01:32:10.917Z,45.67
2017-11-17T01:35:08.043Z,47.05
2017-11-17T01:47:55.807Z,38.85
2017-11-17T01:50:45.653Z,50.50
2017-11-17T01:53:43.065Z,56.22
2017-11-17T01:56:40.684Z,54.58
2017-11-17T01:59:38.165Z,62.88
2017-11-17T02:02:41.636Z,66.78
2017-11-17T02:05:38.785Z,58.35
2017-11-17T02:11:25.656Z,70.57
2017-11-17T02:14:14.852Z,52.37
2017-11-17T02:17:11.606Z,58.22
2017-11-17T02:20:09.334Z,51.35
2017-11-17T02:23:07.182Z,70.72
2017-11-17T02:26:04.843Z,57.22
2017-11-17T02:29:02.609Z,58.10
2017-11-17T02:32:00.164Z,62.35
2017-11-17T02:34:25.974Z,48.95
2017-11-17T02:54:00.296Z,46.58
2017-11-17T02:56:26.122Z,59.38
2017-11-17T02:59:15.616Z,54.83
2017-11-17T03:18:28.026Z,53.97
2017-11-17T03:21:17.089Z,59.40
2017-11-17T03:24:14.213Z,54.70
2017-11-17T03:27:11.351Z,61.60
2017-11-17T03:30:09.086Z,48.95
2017-11-17T03:33:06.033Z,49.22
2017-11-17T03:42:14.676Z,54.33
2017-11-17T03:45:04.414Z,70.60
2017-11-17T03:48:02.106Z,65.93
2017-11-17T04:07:08.493Z,69.15
2017-11-17T04:10:06.463Z,70.35
2017-11-17T04:13:03.556Z,60.88
2017-11-17T04:16:01.104Z,69.97
2017-11-17T04:18:58.314Z,66.85
2017-11-17T04:28:06.852Z,60.75
2017-11-17T04:30:56.680Z,68.27
2017-11-17T04:50:08.188Z,69.85
2017-11-17T05:09:43.036Z,61.92
2017-11-17T05:12:08.840Z,67.70
2017-11-17T05:14:58.219Z,72.70
2017-11-17T05:17:56.277Z,71.00
2017-11-17T05:33:46.137Z,62.78
2017-11-17T05:36:35.699Z,65.20
2017-11-17T05:39:32.925Z,71.53
2017-11-17T05:42:29.892Z,67.00
2017-11-17T05:45:26.923Z,58.15
2017-11-17T05:48:23.966Z,68.87
2017-11-17T05:51:21.069Z,69.30
2017-11-17T05:54:18.863Z,62.72
2017-11-17T06:13:28.749Z,50.25
2017-11-17T06:16:26.620Z,54.80
2017-11-17T06:18:52.409Z,59.00
2017-11-17T06:21:41.826Z,66.97
2017-11-17T06:24:39.868Z,54.97
2017-11-17T06:27:37.736Z,56.10
2017-11-17T06:40:22.559Z,62.30
2017-11-17T06:43:11.520Z,53.05
2017-11-17T06:46:08.716Z,48.50
2017-11-17T06:49:05.569Z,51.88
2017-11-17T06:52:02.540Z,63.70
2017-11-17T06:54:59.460Z,57.53
2017-11-17T06:57:56.377Z,67.75
2017-11-17T07:00:53.124Z,48.30
2017-11-17T07:03:18.917Z,49.65
2017-11-17T07:06:08.450Z,54.23
2017-11-17T07:09:05.471Z,52.47
2017-11-17T07:12:03.303Z,50.22
2017-11-17T07:24:45.561Z,47.17
2017-11-17T07:27:35.052Z,47.75
2017-11-17T07:30:32.803Z,45.47
2017-11-17T07:33:30.658Z,45.50
2017-11-17T07:36:27.597Z,50.17
2017-11-17T07:39:24.541Z,39.03
2017-11-17T07:42:22.383Z,46.60
2017-11-17T07:48:09.884Z,50.63
2017-11-17T07:50:59.277Z,62.13
2017-11-17T07:53:56.683Z,53.97
2017-11-17T07:56:53.960Z,69.12
2017-11-17T07:59:51.801Z,69.93
2017-11-17T08:02:48.735Z,66.87
2017-11-17T08:05:45.679Z,80.28
2017-11-17T08:08:42.724Z,71.78
2017-11-17T08:11:08.525Z,76.65
2017-11-17T08:30:43.552Z,66.28
2017-11-17T08:33:09.348Z,84.00
2017-11-17T08:35:58.640Z,65.97
2017-11-17T08:55:10.917Z,77.03
2017-11-17T08:57:59.816Z,101.50
2017-11-17T09:00:56.740Z,79.75
2017-11-17T09:03:53.818Z,67.07
2017-11-17T09:06:51.643Z,70.97
2017-11-17T09:09:48.820Z,56.35
2017-11-17T09:18:57.135Z,65.25
2017-11-17T09:21:46.796Z,61.93
2017-11-17T09:24:43.737Z,71.32
2017-11-17T09:27:41.071Z,57.90
2017-11-17T09:30:38.940Z,69.80
2017-11-17T09:33:36.988Z,59.75
2017-11-17T09:36:34.848Z,60.30
2017-11-17T09:42:22.509Z,55.40
2017-11-17T09:45:11.343Z,55.47
2017-11-17T09:48:09.091Z,64.72
2017-11-17T10:03:58.820Z,52.55
2017-11-17T10:06:47.881Z,65.23
2017-11-17T10:09:45.115Z,57.72
2017-11-17T10:12:42.138Z,69.22
2017-11-17T10:15:39.396Z,55.83
2017-11-17T10:18:36.467Z,60.30
2017-11-17T10:21:33.589Z,56.65
2017-11-17T10:24:30.476Z,72.12
2017-11-17T10:26:56.260Z,63.85
2017-11-17T10:29:45.213Z,61.47
2017-11-17T10:32:42.332Z,63.95
2017-11-17T10:35:39.132Z,74.62
2017-11-17T10:38:36.102Z,66.70
2017-11-17T10:41:32.995Z,82.28
2017-11-17T10:50:41.272Z,83.78
2017-11-17T11:10:15.804Z,73.35
2017-11-17T11:12:41.604Z,68.28
2017-11-17T11:15:31.408Z,84.03
2017-11-17T11:18:29.207Z,79.68
2017-11-17T11:21:26.908Z,89.45
2017-11-17T11:24:24.788Z,85.45
2017-11-17T11:27:22.121Z,84.75
2017-11-17T11:36:29.836Z,87.20
2017-11-17T11:56:05.642Z,106.72
2017-11-17T11:58:31.437Z,109.37
2017-11-17T12:01:20.813Z,274.40
2017-11-17T12:04:18.652Z,95.90
2017-11-17T12:23:26.426Z,120.40
2017-11-17T12:42:38.112Z,65.40
2017-11-17T12:45:27.180Z,68.00
2017-11-17T12:48:24.192Z,71.25
2017-11-17T12:51:21.536Z,53.65
2017-11-17T12:54:19.173Z,61.30
2017-11-17T13:04:08.933Z,41.53
2017-11-17T13:06:58.764Z,38.70
2017-11-17T13:29:24.306Z,40.38
2017-11-17T13:32:22.168Z,31.70
2017-11-17T13:35:20.119Z,46.67
2017-11-17T13:38:17.217Z,40.80
2017-11-17T13:41:14.176Z,40.35
2017-11-17T13:44:12.122Z,37.17
2017-11-17T13:47:09.140Z,89.65
2017-11-17T14:06:21.357Z,40.65
2017-11-17T14:09:18.367Z,39.15
2017-11-17T14:11:44.128Z,34.22
2017-11-17T14:14:33.788Z,43.67
2017-11-17T14:33:45.230Z,39.78
2017-11-17T14:36:34.898Z,39.53
2017-11-17T14:55:47.075Z,31.20
2017-11-17T15:15:22.972Z,28.73
2017-11-17T15:34:33.624Z,50.95
2017-11-17T15:53:44.986Z,50.80
2017-11-17T15:56:42.908Z,43.92
2017-11-17T15:59:41.007Z,52.22
2017-11-17T16:02:14.892Z,44.47
2017-11-17T16:05:04.781Z,50.10
2017-11-17T16:08:02.292Z,52.33
2017-11-17T16:10:59.683Z,56.75
2017-11-17T16:13:57.232Z,61.00
2017-11-17T16:16:54.774Z,49.67
2017-11-17T16:19:51.928Z,60.22
2017-11-17T16:25:38.872Z,51.70
2017-11-17T16:28:27.897Z,54.60
2017-11-17T16:31:25.740Z,61.22
2017-11-17T16:34:23.087Z,70.22
2017-11-17T16:47:06.689Z,52.80
2017-11-17T17:06:47.921Z,65.90
2017-11-17T17:09:13.713Z,54.20
2017-11-17T17:12:03.111Z,57.17
2017-11-17T17:15:00.147Z,49.50
2017-11-17T17:17:58.104Z,55.30
2017-11-17T17:20:55.145Z,63.95
2017-11-17T17:30:47.328Z,58.87
2017-11-17T17:50:23.756Z,83.87
2017-11-17T17:52:49.524Z,78.37
2017-11-17T17:55:39.161Z,71.63
2017-11-17T18:14:51.972Z,142.10
2017-11-17T18:17:41.867Z,109.97
2017-11-17T18:20:39.780Z,78.78
2017-11-17T18:23:36.951Z,76.78
2017-11-17T18:26:34.737Z,72.47
2017-11-17T18:29:31.893Z,70.55
2017-11-17T18:48:50.519Z,77.95
2017-11-17T19:01:34.494Z,124.35
2017-11-17T19:04:24.177Z,255.83
2017-11-17T19:23:36.818Z,77.07
2017-11-17T19:26:26.885Z,112.40
2017-11-17T19:29:24.823Z,119.95
2017-11-17T19:45:16.027Z,602.92
2017-11-17T19:48:05.344Z,519.00
2017-11-17T20:07:18.512Z,440.60
2017-11-17T20:10:07.965Z,130.80
2017-11-17T20:13:05.081Z,156.98
2017-11-17T20:16:02.860Z,142.37
2017-11-17T20:19:00.685Z,103.22
2017-11-17T20:21:58.560Z,98.15
2017-11-17T20:31:07.296Z,86.87
2017-11-17T20:33:57.101Z,95.37
2017-11-17T20:36:54.894Z,97.43
2017-11-17T20:39:52.859Z,95.00
2017-11-17T20:42:50.686Z,99.37
2017-11-17T20:45:48.653Z,92.03
2017-11-17T20:48:45.889Z,127.32
2017-11-17T20:51:43.672Z,108.75
2017-11-17T21:11:01.637Z,101.68
2017-11-17T21:13:58.658Z,116.57
2017-11-17T21:16:24.422Z,112.22
2017-11-17T21:19:13.481Z,100.87
2017-11-17T21:22:10.617Z,99.40
2017-11-17T21:25:08.492Z,116.75
2017-11-17T21:38:27.658Z,184.15
2017-11-17T21:40:53.489Z,162.10
2017-11-17T21:43:19.287Z,150.53
2017-11-17T21:45:45.065Z,131.40
2017-11-17T21:48:10.844Z,124.73
2017-11-17T21:50:36.628Z,124.77
2017-11-17T21:53:02.416Z,105.70
2017-11-17T21:55:28.195Z,163.53
2017-11-17T21:57:53.969Z,125.70
2017-11-17T22:00:19.740Z,136.73
2017-11-17T22:02:45.516Z,127.63
2017-11-17T22:05:11.277Z,110.93
2017-11-17T22:07:37.053Z,120.27
2017-11-17T22:10:02.851Z,111.03
2017-11-17T22:12:28.600Z,99.80
2017-11-17T22:14:54.375Z,89.50
2017-11-17T22:17:20.156Z,104.27
2017-11-17T22:19:45.933Z,87.03
2017-11-17T22:22:11.709Z,84.67
2017-11-17T22:24:37.482Z,82.20
2017-11-17T22:27:03.247Z,78.07
2017-11-17T22:29:29.023Z,94.70
2017-11-17T22:31:54.802Z,74.37
2017-11-17T22:34:20.539Z,76.57
2017-11-17T22:36:46.300Z,113.17
2017-11-17T22:39:12.068Z,124.50
2017-11-17T22:41:37.832Z,232.63
2017-11-17T22:44:03.609Z,283.37
2017-11-17T22:46:29.347Z,146.60
2017-11-17T22:48:55.118Z,254.60
2017-11-17T22:51:20.895Z,239.50
2017-11-17T22:53:46.632Z,172.70
2017-11-17T22:56:12.405Z,142.43
2017-11-17T22:58:38.178Z,286.97
2017-11-17T23:01:03.921Z,537.63
2017-11-17T23:03:29.684Z,653.70
2017-11-17T23:05:55.441Z,302.23
2017-11-17T23:08:21.192Z,147.00
2017-11-17T23:10:46.960Z,172.47
2017-11-17T23:13:12.700Z,103.60
2017-11-17T23:15:38.455Z,82.10
2017-11-17T23:18:04.217Z,77.60
2017-11-17T23:20:29.972Z,81.87
2017-11-17T23:22:55.757Z,60.50
2017-11-17T23:25:21.504Z,65.80
2017-11-17T23:27:47.254Z,71.80
2017-11-17T23:30:13.027Z,74.90
2017-11-17T23:32:38.784Z,62.57
2017-11-17T23:35:04.635Z,86.40
2017-11-17T23:37:33.416Z,69.00
2017-11-17T23:39:59.252Z,66.37
2017-11-17T23:42:25.033Z,51.87
2017-11-17T23:44:50.808Z,45.47
2017-11-17T23:47:16.570Z,41.67
2017-11-17T23:49:42.361Z,34.57
2017-11-17T23:52:08.143Z,44.43
2017-11-17T23:54:33.936Z,45.30
2017-11-17T23:56:59.686Z,42.53
2017-11-17T23:59:25.459Z,49.23
